Time,TemperatureF,DewpointF,PressureIn,WindDirection,WindDirectionDegrees,WindSpeedMPH,WindSpeedGustMPH,Humidity,HourlyPrecipIn,Conditions,Clouds,dailyrainin,SoftwareType,DateUTC
2013-02-07 00:04:00,49.3,36.4,29.44,NE,45,0.0,0.0,61,0.00,,---,0.00,VWS V14.01,2013-02-07 06:04:00,
2013-02-07 00:09:00,49.3,36.8,29.44,NE,45,0.0,0.0,62,0.00,,---,0.00,VWS V14.01,2013-02-07 06:09:00,
2013-02-07 00:14:00,49.1,37.1,29.44,ENE,68,0.0,0.0,63,0.00,,---,0.00,VWS V14.01,2013-02-07 06:14:00,
2013-02-07 00:19:00,48.9,36.5,29.44,ENE,68,0.0,0.0,62,0.00,,---,0.00,VWS V14.01,2013-02-07 06:19:00,
2013-02-07 00:24:00,48.9,36.9,29.44,WNW,292,0.0,0.0,63,0.00,,---,0.00,VWS V14.01,2013-02-07 06:24:00,
2013-02-07 00:29:00,48.9,36.9,29.44,NW,315,0.0,0.0,63,0.00,,---,0.00,VWS V14.01,2013-02-07 06:29:00,
2013-02-07 00:34:00,49.1,37.9,29.44,NW,315,0.0,0.0,65,0.00,,---,0.00,VWS V14.01,2013-02-07 06:34:00,
2013-02-07 00:40:00,48.9,38.5,29.44,WSW,248,2.2,2.5,67,0.00,,---,0.00,VWS V14.01,2013-02-07 06:40:00,
2013-02-07 00:45:00,48.9,38.8,29.44,West,270,3.1,3.1,68,0.00,,---,0.00,VWS V14.01,2013-02-07 06:45:00,
2013-02-07 00:50:00,48.9,39.2,29.44,WNW,292,0.0,0.0,69,0.00,,---,0.00,VWS V14.01,2013-02-07 06:50:00,
2013-02-07 00:55:00,48.7,39.0,29.44,NNE,22,0.0,0.9,69,0.00,,---,0.00,VWS V14.01,2013-02-07 06:55:00,
2013-02-07 01:00:00,48.9,39.9,29.44,NNE,22,0.0,0.0,71,0.00,,---,0.00,VWS V14.01,2013-02-07 07:00:00,
2013-02-07 01:05:00,48.9,39.6,29.41,NNE,22,1.1,1.1,70,0.00,,---,0.00,VWS V14.01,2013-02-07 07:05:00,
2013-02-07 01:10:00,49.1,40.1,29.41,ENE,68,1.3,1.3,71,0.00,,---,0.00,VWS V14.01,2013-02-07 07:10:00,
2013-02-07 01:15:00,48.9,39.9,29.41,North,0,0.0,0.0,71,0.00,,---,0.00,VWS V14.01,2013-02-07 07:15:00,
2013-02-07 01:20:00,48.9,40.3,29.41,WNW,292,1.3,2.0,72,0.00,,---,0.00,VWS V14.01,2013-02-07 07:20:00,
2013-02-07 01:25:00,48.9,40.3,29.41,NNW,338,0.0,0.0,72,0.00,,---,0.00,VWS V14.01,2013-02-07 07:25:00,
2013-02-07 01:30:00,48.7,39.8,29.41,NW,315,0.0,1.6,71,0.00,,---,0.00,VWS V14.01,2013-02-07 07:30:00,
2013-02-07 01:35:00,48.7,39.8,29.38,North,0,0.9,2.0,71,0.00,,---,0.00,VWS V14.01,2013-02-07 07:35:00,
2013-02-07 01:40:00,48.9,40.3,29.38,West,270,2.0,2.2,72,0.00,,---,0.00,VWS V14.01,2013-02-07 07:40:00,
2013-02-07 01:45:00,48.7,40.5,29.38,West,270,0.0,1.6,73,0.00,,---,0.00,VWS V14.01,2013-02-07 07:45:00,
2013-02-07 01:50:00,48.7,40.1,29.38,West,270,1.3,1.3,72,0.00,,---,0.00,VWS V14.01,2013-02-07 07:50:00,
2013-02-07 01:55:00,48.7,40.5,29.38,NW,315,1.3,1.3,73,0.00,,---,0.00,VWS V14.01,2013-02-07 07:55:00,
2013-02-07 02:00:00,48.7,40.5,29.38,NW,315,0.0,0.0,73,0.00,,---,0.00,VWS V14.01,2013-02-07 08:00:00,
2013-02-07 02:05:00,48.7,40.1,29.38,NW,315,0.0,0.0,72,0.00,,---,0.00,VWS V14.01,2013-02-07 08:05:00,
2013-02-07 02:10:00,48.7,39.8,29.38,ENE,68,0.9,687.4,71,0.00,,---,0.00,VWS V14.01,2013-02-07 08:10:00,
2013-02-07 02:15:00,48.9,40.3,29.38,ENE,68,0.0,1.3,72,0.00,,---,0.00,VWS V14.01,2013-02-07 08:15:00,
2013-02-07 02:20:00,48.9,39.9,29.38,ENE,68,0.0,0.0,71,0.00,,---,0.00,VWS V14.01,2013-02-07 08:20:00,
2013-02-07 02:25:00,48.9,40.3,29.38,ENE,68,0.0,0.0,72,0.00,,---,0.00,VWS V14.01,2013-02-07 08:25:00,
2013-02-07 02:30:00,48.9,39.9,29.38,ENE,68,0.0,0.0,71,0.00,,---,0.00,VWS V14.01,2013-02-07 08:30:00,
2013-02-07 02:35:00,48.9,39.6,29.38,ENE,68,0.0,0.0,70,0.00,,---,0.00,VWS V14.01,2013-02-07 08:35:00,
2013-02-07 02:40:00,49.1,40.8,29.38,ENE,68,0.0,1.3,73,0.00,,---,0.00,VWS V14.01,2013-02-07 08:40:00,
2013-02-07 02:45:00,49.1,40.5,29.38,ENE,68,0.0,1.1,72,0.00,,---,0.00,VWS V14.01,2013-02-07 08:45:00,
2013-02-07 02:50:00,48.9,39.9,29.38,ENE,68,0.9,0.9,71,0.00,,---,0.00,VWS V14.01,2013-02-07 08:50:00,
2013-02-07 02:55:00,48.9,39.9,29.38,ENE,68,0.0,0.0,71,0.00,,---,0.00,VWS V14.01,2013-02-07 08:55:00,
2013-02-07 03:01:00,48.9,39.9,29.38,ENE,68,0.0,0.0,71,0.00,,---,0.00,VWS V14.01,2013-02-07 09:01:00,
2013-02-07 03:06:00,48.9,39.9,29.38,ENE,68,0.0,0.0,71,0.00,,---,0.00,VWS V14.01,2013-02-07 09:06:00,
2013-02-07 03:11:00,48.9,39.9,29.38,NNE,22,1.6,2.5,71,0.00,,---,0.00,VWS V14.01,2013-02-07 09:11:00,
2013-02-07 03:16:00,48.7,39.8,29.38,NNE,22,0.0,0.0,71,0.00,,---,0.00,VWS V14.01,2013-02-07 09:16:00,
2013-02-07 03:21:00,48.7,40.1,29.38,NNE,22,0.0,0.0,72,0.00,,---,0.00,VWS V14.01,2013-02-07 09:21:00,
2013-02-07 03:26:00,48.6,40.0,29.38,NNE,22,0.0,0.0,72,0.00,,---,0.00,VWS V14.01,2013-02-07 09:26:00,
2013-02-07 03:31:00,48.6,40.0,29.38,NNE,22,0.0,0.0,72,0.00,,---,0.00,VWS V14.01,2013-02-07 09:31:00,
2013-02-07 03:36:00,48.6,40.0,29.38,NNE,22,0.0,0.0,72,0.00,,---,0.00,VWS V14.01,2013-02-07 09:36:00,
2013-02-07 03:41:00,48.6,40.0,29.38,ESE,112,0.0,1.3,72,0.00,,---,0.00,VWS V14.01,2013-02-07 09:41:00,
2013-02-07 03:46:00,48.6,40.0,29.38,ESE,112,0.9,0.9,72,0.00,,---,0.00,VWS V14.01,2013-02-07 09:46:00,
2013-02-07 03:51:00,48.4,39.8,29.38,ESE,112,0.0,0.0,72,0.00,,---,0.00,VWS V14.01,2013-02-07 09:51:00,
2013-02-07 03:56:00,48.4,39.8,29.38,ESE,112,0.0,0.0,72,0.00,,---,0.00,VWS V14.01,2013-02-07 09:56:00,
2013-02-07 04:01:00,48.4,39.8,29.38,ESE,112,0.0,0.0,72,0.00,,---,0.00,VWS V14.01,2013-02-07 10:01:00,
2013-02-07 04:06:00,48.4,39.4,29.38,ESE,112,0.0,0.0,71,0.00,,---,0.00,VWS V14.01,2013-02-07 10:06:00,
2013-02-07 04:11:00,48.4,39.4,29.38,ESE,112,0.0,0.0,71,0.00,,---,0.00,VWS V14.01,2013-02-07 10:11:00,
2013-02-07 04:16:00,48.6,40.0,29.35,ESE,112,0.0,0.0,72,0.00,,---,0.00,VWS V14.01,2013-02-07 10:16:00,
2013-02-07 04:21:00,48.6,39.6,29.35,ENE,68,0.0,1.3,71,0.00,,---,0.00,VWS V14.01,2013-02-07 10:21:00,
2013-02-07 04:26:00,48.7,39.8,29.35,SW,225,0.0,0.0,71,0.00,,---,0.00,VWS V14.01,2013-02-07 10:26:00,
2013-02-07 04:31:00,48.7,39.4,29.35,West,270,0.0,0.0,70,0.00,,---,0.00,VWS V14.01,2013-02-07 10:31:00,
2013-02-07 04:37:00,48.7,39.4,29.35,North,0,0.0,0.0,70,0.00,,---,0.00,VWS V14.01,2013-02-07 10:37:00,
2013-02-07 04:42:00,48.7,39.0,29.35,North,0,0.0,0.0,69,0.00,,---,0.00,VWS V14.01,2013-02-07 10:42:00,
2013-02-07 04:47:00,48.7,39.0,29.35,North,0,0.0,0.0,69,0.00,,---,0.00,VWS V14.01,2013-02-07 10:47:00,
2013-02-07 04:52:00,48.7,39.4,29.35,North,0,0.0,0.0,70,0.00,,---,0.00,VWS V14.01,2013-02-07 10:52:00,
2013-02-07 04:57:00,48.7,39.0,29.35,North,0,0.0,0.0,69,0.00,,---,0.00,VWS V14.01,2013-02-07 10:57:00,
2013-02-07 05:02:00,48.7,39.0,29.35,North,0,0.0,0.0,69,0.00,,---,0.00,VWS V14.01,2013-02-07 11:02:00,
2013-02-07 05:07:00,48.7,39.0,29.35,NE,45,0.0,0.0,69,0.00,,---,0.00,VWS V14.01,2013-02-07 11:07:00,
2013-02-07 05:12:00,48.7,39.0,29.35,NE,45,0.9,1.3,69,0.00,,---,0.00,VWS V14.01,2013-02-07 11:12:00,
2013-02-07 05:17:00,48.9,39.2,29.35,SE,135,0.0,2.2,69,0.00,,---,0.00,VWS V14.01,2013-02-07 11:17:00,
2013-02-07 05:22:00,49.1,39.0,29.35,NE,45,0.0,0.0,68,0.00,,---,0.00,VWS V14.01,2013-02-07 11:22:00,
2013-02-07 05:27:00,49.3,38.8,29.35,NNE,22,0.9,1.1,67,0.00,,---,0.00,VWS V14.01,2013-02-07 11:27:00,
2013-02-07 05:32:00,49.3,38.0,29.35,ENE,68,1.1,3.1,65,0.00,,---,0.00,VWS V14.01,2013-02-07 11:32:00,
2013-02-07 05:37:00,49.5,37.8,29.35,ENE,68,1.1,1.6,64,0.00,,---,0.00,VWS V14.01,2013-02-07 11:37:00,
2013-02-07 05:42:00,49.6,37.6,29.35,ENE,68,2.9,2.9,63,0.00,,---,0.00,VWS V14.01,2013-02-07 11:42:00,
2013-02-07 05:47:00,49.8,36.5,29.35,ESE,112,3.6,3.6,60,0.00,,---,0.00,VWS V14.01,2013-02-07 11:47:00,
2013-02-07 05:52:00,50.0,36.7,29.35,ESE,112,0.0,1.6,60,0.00,,---,0.00,VWS V14.01,2013-02-07 11:52:00,
2013-02-07 05:57:00,50.0,36.2,29.35,ENE,68,2.2,2.5,59,0.00,,---,0.00,VWS V14.01,2013-02-07 11:57:00,
2013-02-07 06:02:00,50.0,35.4,29.35,East,90,2.2,2.7,57,0.00,,---,0.00,VWS V14.01,2013-02-07 12:02:00,
2013-02-07 06:07:00,50.0,34.9,29.35,SE,135,0.0,2.0,56,0.00,,---,0.00,VWS V14.01,2013-02-07 12:07:00,
2013-02-07 06:12:00,50.0,35.4,29.35,NNE,22,0.0,1.3,57,0.00,,---,0.00,VWS V14.01,2013-02-07 12:12:00,
2013-02-07 06:17:00,50.0,34.9,29.35,East,90,2.0,2.0,56,0.00,,---,0.00,VWS V14.01,2013-02-07 12:17:00,
2013-02-07 06:22:00,50.0,35.4,29.35,East,90,0.0,1.3,57,0.00,,---,0.00,VWS V14.01,2013-02-07 12:22:00,
2013-02-07 06:27:00,49.8,35.2,29.35,East,90,2.0,2.5,57,0.00,,---,0.00,VWS V14.01,2013-02-07 12:27:00,
2013-02-07 06:32:00,50.0,34.9,29.35,ESE,112,2.5,2.9,56,0.00,,---,0.00,VWS V14.01,2013-02-07 12:32:00,
2013-02-07 06:37:00,50.0,34.5,29.35,East,90,2.5,2.9,55,0.00,,---,0.00,VWS V14.01,2013-02-07 12:37:00,
2013-02-07 06:42:00,50.0,34.5,29.35,ESE,112,3.6,4.7,55,0.00,,---,0.00,VWS V14.01,2013-02-07 12:42:00,
2013-02-07 06:47:00,50.0,34.0,29.35,East,90,3.4,4.9,54,0.00,,---,0.00,VWS V14.01,2013-02-07 12:47:00,
2013-02-07 06:52:00,50.0,33.6,29.35,East,90,3.6,6.3,53,0.00,,---,0.00,VWS V14.01,2013-02-07 12:52:00,
2013-02-07 06:57:00,50.0,33.1,29.35,East,90,6.3,7.6,52,0.00,,---,0.00,VWS V14.01,2013-02-07 12:57:00,
2013-02-07 07:03:00,50.0,33.1,29.32,WSW,248,1.1,3.6,52,0.00,,---,0.00,VWS V14.01,2013-02-07 13:03:00,
2013-02-07 07:08:00,49.8,32.9,29.32,NNW,338,1.1,2.5,52,0.00,,---,0.00,VWS V14.01,2013-02-07 13:08:00,
2013-02-07 07:13:00,49.8,33.4,29.32,NNE,22,1.3,3.8,53,0.00,,---,0.00,VWS V14.01,2013-02-07 13:13:00,
2013-02-07 07:18:00,50.0,33.6,29.35,North,0,1.1,1.6,53,0.00,,---,0.00,VWS V14.01,2013-02-07 13:18:00,
2013-02-07 07:23:00,50.0,34.0,29.35,NW,315,1.6,2.0,54,0.00,,---,0.00,VWS V14.01,2013-02-07 13:23:00,
2013-02-07 07:28:00,50.0,34.9,29.35,NW,315,0.9,2.0,56,0.00,,---,0.00,VWS V14.01,2013-02-07 13:28:00,
2013-02-07 07:33:00,49.8,35.2,29.35,NW,315,0.0,0.0,57,0.00,,---,0.00,VWS V14.01,2013-02-07 13:33:00,
2013-02-07 07:38:00,49.8,35.2,29.35,NNW,338,0.0,1.3,57,0.00,,---,0.00,VWS V14.01,2013-02-07 13:38:00,
2013-02-07 07:43:00,49.8,36.5,29.35,NNW,338,0.0,0.0,60,0.00,,---,0.00,VWS V14.01,2013-02-07 13:43:00,
2013-02-07 07:48:00,49.8,36.1,29.35,NNW,338,0.0,0.0,59,0.00,,---,0.00,VWS V14.01,2013-02-07 13:48:00,
2013-02-07 07:53:00,50.0,35.8,29.35,NNW,338,0.0,0.0,58,0.00,,---,0.00,VWS V14.01,2013-02-07 13:53:00,
2013-02-07 07:58:00,50.2,37.3,29.35,West,270,0.0,2.7,61,0.00,,---,0.00,VWS V14.01,2013-02-07 13:58:00,
2013-02-07 08:03:00,50.2,36.4,29.38,East,90,2.5,2.5,59,0.00,,---,0.00,VWS V14.01,2013-02-07 14:03:00,
2013-02-07 08:08:00,50.2,35.5,29.38,East,90,2.9,2.9,57,0.00,,---,0.00,VWS V14.01,2013-02-07 14:08:00,
2013-02-07 08:13:00,50.7,36.5,29.38,ENE,68,0.0,2.7,58,0.00,,---,0.00,VWS V14.01,2013-02-07 14:13:00,
2013-02-07 08:18:00,50.5,35.9,29.38,ESE,112,3.4,4.0,57,0.00,,---,0.00,VWS V14.01,2013-02-07 14:18:00,
2013-02-07 08:23:00,50.7,34.7,29.38,ESE,112,2.7,4.3,54,0.00,,---,0.00,VWS V14.01,2013-02-07 14:23:00,
2013-02-07 08:29:00,50.7,33.8,29.38,ESE,112,3.1,4.9,52,0.00,,---,0.00,VWS V14.01,2013-02-07 14:29:00,
2013-02-07 08:34:00,50.9,34.4,29.35,East,90,2.5,3.1,53,0.00,,---,0.00,VWS V14.01,2013-02-07 14:34:00,
2013-02-07 08:39:00,50.9,33.9,29.35,ESE,112,2.7,5.6,52,0.00,,---,0.00,VWS V14.01,2013-02-07 14:39:00,
2013-02-07 08:44:00,51.1,34.1,29.35,ESE,112,2.7,3.8,52,0.00,,---,0.00,VWS V14.01,2013-02-07 14:44:00,
2013-02-07 08:49:00,51.4,34.4,29.35,SE,135,3.1,3.1,52,0.00,,---,0.00,VWS V14.01,2013-02-07 14:49:00,
2013-02-07 08:54:00,51.6,34.6,29.35,SE,135,2.5,2.5,52,0.00,,---,0.00,VWS V14.01,2013-02-07 14:54:00,
2013-02-07 08:59:00,52.0,34.4,29.35,ESE,112,1.1,1.6,51,0.00,,---,0.00,VWS V14.01,2013-02-07 14:59:00,
2013-02-07 09:04:00,52.3,34.8,29.32,SE,135,2.7,2.7,51,0.00,,---,0.00,VWS V14.01,2013-02-07 15:04:00,
2013-02-07 09:09:00,52.7,35.1,29.32,ESE,112,2.0,2.2,51,0.00,,---,0.00,VWS V14.01,2013-02-07 15:09:00,
2013-02-07 09:14:00,53.1,35.9,29.32,ENE,68,1.6,2.5,52,0.00,,---,0.00,VWS V14.01,2013-02-07 15:14:00,
2013-02-07 09:19:00,53.4,36.7,29.32,ESE,112,0.0,0.0,53,0.00,,---,0.00,VWS V14.01,2013-02-07 15:19:00,
2013-02-07 09:24:00,53.8,37.1,29.32,ESE,112,0.0,1.1,53,0.00,,---,0.00,VWS V14.01,2013-02-07 15:24:00,
2013-02-07 09:29:00,54.0,36.8,29.32,WNW,292,2.0,2.0,52,0.00,,---,0.00,VWS V14.01,2013-02-07 15:29:00,
2013-02-07 09:34:00,54.0,36.8,29.32,SSE,158,2.0,2.0,52,0.00,,---,0.00,VWS V14.01,2013-02-07 15:34:00,
2013-02-07 09:39:00,54.1,37.4,29.32,South,180,0.0,1.6,53,0.00,,---,0.00,VWS V14.01,2013-02-07 15:39:00,
2013-02-07 09:44:00,54.1,36.4,29.32,SSW,202,2.5,2.5,51,0.00,,---,0.00,VWS V14.01,2013-02-07 15:44:00,
2013-02-07 09:49:00,54.1,36.4,29.32,East,90,3.1,3.1,51,0.00,,---,0.00,VWS V14.01,2013-02-07 15:49:00,
2013-02-07 09:55:00,54.1,35.9,29.32,ENE,68,2.5,3.8,50,0.00,,---,0.00,VWS V14.01,2013-02-07 15:55:00,
2013-02-07 10:00:00,54.1,36.4,29.32,ENE,68,1.3,1.6,51,0.00,,---,0.00,VWS V14.01,2013-02-07 16:00:00,
2013-02-07 10:05:00,54.5,36.8,29.35,ESE,112,2.0,2.2,51,0.00,,---,0.00,VWS V14.01,2013-02-07 16:05:00,
2013-02-07 10:10:00,54.5,36.8,29.35,ENE,68,1.3,1.3,51,0.00,,---,0.00,VWS V14.01,2013-02-07 16:10:00,
2013-02-07 10:15:00,54.9,37.1,29.35,ESE,112,0.0,1.3,51,0.00,,---,0.00,VWS V14.01,2013-02-07 16:15:00,
2013-02-07 10:20:00,55.2,37.4,29.35,ESE,112,1.3,1.6,51,0.00,,---,0.00,VWS V14.01,2013-02-07 16:20:00,
2013-02-07 10:25:00,55.4,37.6,29.35,East,90,2.2,2.2,51,0.00,,---,0.00,VWS V14.01,2013-02-07 16:25:00,
2013-02-07 10:30:00,55.8,37.9,29.35,NE,45,1.6,2.5,51,0.00,,---,0.00,VWS V14.01,2013-02-07 16:30:00,
2013-02-07 10:35:00,55.9,37.6,29.35,East,90,2.5,2.7,50,0.00,,---,0.00,VWS V14.01,2013-02-07 16:35:00,
2013-02-07 10:40:00,55.9,37.6,29.35,SSE,158,2.7,2.7,50,0.00,,---,0.00,VWS V14.01,2013-02-07 16:40:00,
2013-02-07 10:45:00,56.1,38.3,29.35,West,270,4.0,4.3,51,0.00,,---,0.00,VWS V14.01,2013-02-07 16:45:00,
2013-02-07 10:50:00,56.3,38.4,29.35,SSW,202,2.0,2.2,51,0.00,,---,0.00,VWS V14.01,2013-02-07 16:50:00,
2013-02-07 10:55:00,56.1,37.2,29.35,SSW,202,1.6,2.5,49,0.00,,---,0.00,VWS V14.01,2013-02-07 16:55:00,
2013-02-07 11:00:00,56.3,37.9,29.35,ESE,112,2.7,3.1,50,0.00,,---,0.00,VWS V14.01,2013-02-07 17:00:00,
2013-02-07 11:05:00,56.7,37.7,29.35,South,180,3.1,6.3,49,0.00,,---,0.00,VWS V14.01,2013-02-07 17:05:00,
2013-02-07 11:10:00,56.8,37.9,29.35,East,90,0.0,2.9,49,0.00,,---,0.00,VWS V14.01,2013-02-07 17:10:00,
2013-02-07 11:15:00,57.2,38.2,29.35,ENE,68,2.0,4.0,49,0.00,,---,0.00,VWS V14.01,2013-02-07 17:15:00,
2013-02-07 11:20:00,57.4,38.9,29.35,East,90,4.0,4.0,50,0.00,,---,0.00,VWS V14.01,2013-02-07 17:20:00,
2013-02-07 11:25:00,57.4,38.9,29.35,East,90,2.7,3.4,50,0.00,,---,0.00,VWS V14.01,2013-02-07 17:25:00,
2013-02-07 11:30:00,57.4,39.9,29.35,SSW,202,1.6,4.0,52,0.00,,---,0.00,VWS V14.01,2013-02-07 17:30:00,
2013-02-07 11:35:00,57.6,40.1,29.35,South,180,2.7,2.9,52,0.00,,---,0.00,VWS V14.01,2013-02-07 17:35:00,
2013-02-07 11:40:00,57.7,40.7,29.35,East,90,4.0,5.6,53,0.00,,---,0.00,VWS V14.01,2013-02-07 17:40:00,
2013-02-07 11:45:00,57.6,40.6,29.35,ESE,112,2.9,2.9,53,0.00,,---,0.00,VWS V14.01,2013-02-07 17:45:00,
2013-02-07 11:50:00,57.6,40.6,29.35,East,90,1.6,2.7,53,0.00,,---,0.00,VWS V14.01,2013-02-07 17:50:00,
2013-02-07 11:55:00,57.7,40.7,29.35,ESE,112,2.5,2.9,53,0.00,,---,0.00,VWS V14.01,2013-02-07 17:55:00,
2013-02-07 12:00:00,57.7,42.2,29.35,ESE,112,2.0,2.2,56,0.00,,---,0.00,VWS V14.01,2013-02-07 18:00:00,
2013-02-07 12:06:00,57.9,43.7,29.32,SW,225,2.7,2.7,59,0.00,,---,0.00,VWS V14.01,2013-02-07 18:06:00,
2013-02-07 12:11:00,57.9,44.1,29.32,South,180,2.2,4.7,60,0.00,,---,0.00,VWS V14.01,2013-02-07 18:11:00,
2013-02-07 12:16:00,57.9,44.1,29.32,ENE,68,2.7,4.9,60,0.00,,---,0.00,VWS V14.01,2013-02-07 18:16:00,
2013-02-07 12:21:00,57.9,44.1,29.32,ENE,68,3.6,6.3,60,0.00,,---,0.00,VWS V14.01,2013-02-07 18:21:00,
2013-02-07 12:26:00,58.1,44.3,29.32,South,180,2.0,6.0,60,0.00,,---,0.00,VWS V14.01,2013-02-07 18:26:00,
2013-02-07 12:31:00,58.1,44.3,29.32,SSE,158,1.6,5.8,60,0.00,,---,0.00,VWS V14.01,2013-02-07 18:31:00,
2013-02-07 12:36:00,58.1,44.7,29.32,SW,225,3.8,4.0,61,0.00,,---,0.00,VWS V14.01,2013-02-07 18:36:00,
2013-02-07 12:41:00,58.3,44.9,29.32,ESE,112,1.6,4.5,61,0.00,,---,0.00,VWS V14.01,2013-02-07 18:41:00,
2013-02-07 12:46:00,58.3,44.5,29.32,SW,225,2.7,4.3,60,0.00,,---,0.00,VWS V14.01,2013-02-07 18:46:00,
2013-02-07 12:51:00,58.1,44.3,29.32,South,180,3.4,7.8,60,0.00,,---,0.00,VWS V14.01,2013-02-07 18:51:00,
2013-02-07 12:56:00,58.1,44.3,29.32,SSW,202,2.5,4.0,60,0.00,,---,0.00,VWS V14.01,2013-02-07 18:56:00,
2013-02-07 13:01:00,58.1,43.9,29.32,SW,225,3.8,4.9,59,0.00,,---,0.00,VWS V14.01,2013-02-07 19:01:00,
2013-02-07 13:06:00,58.1,43.9,29.29,WSW,248,1.3,3.1,59,0.00,,---,0.00,VWS V14.01,2013-02-07 19:06:00,
2013-02-07 13:11:00,58.1,43.9,29.29,SE,135,2.7,4.0,59,0.00,,---,0.00,VWS V14.01,2013-02-07 19:11:00,
2013-02-07 13:16:00,58.3,44.0,29.29,East,90,2.7,3.6,59,0.00,,---,0.00,VWS V14.01,2013-02-07 19:16:00,
2013-02-07 13:21:00,58.3,44.0,29.32,South,180,1.3,6.3,59,0.00,,---,0.00,VWS V14.01,2013-02-07 19:21:00,
2013-02-07 13:26:00,58.6,43.9,29.32,SSE,158,2.9,2.9,58,0.00,,---,0.00,VWS V14.01,2013-02-07 19:26:00,
2013-02-07 13:31:00,58.6,43.5,29.32,SSW,202,2.0,3.8,57,0.00,,---,0.00,VWS V14.01,2013-02-07 19:31:00,
2013-02-07 13:36:00,58.6,43.0,29.32,East,90,2.9,4.3,56,0.00,,---,0.00,VWS V14.01,2013-02-07 19:36:00,
2013-02-07 13:41:00,58.8,43.6,29.32,NW,315,0.9,2.9,57,0.00,,---,0.00,VWS V14.01,2013-02-07 19:41:00,
2013-02-07 13:46:00,59.0,42.9,29.32,SSW,202,2.7,3.1,55,0.00,,---,0.00,VWS V14.01,2013-02-07 19:46:00,
2013-02-07 13:51:00,59.0,43.3,29.32,ESE,112,3.4,3.4,56,0.00,,---,0.00,VWS V14.01,2013-02-07 19:51:00,
2013-02-07 13:56:00,59.2,43.5,29.32,WSW,248,2.7,2.7,56,0.00,,---,0.00,VWS V14.01,2013-02-07 19:56:00,
2013-02-07 14:01:00,59.4,42.7,29.32,WNW,292,2.0,2.0,54,0.00,,---,0.00,VWS V14.01,2013-02-07 20:01:00,
2013-02-07 14:06:00,59.4,42.7,29.32,SE,135,1.3,2.7,54,0.00,,---,0.00,VWS V14.01,2013-02-07 20:06:00,
2013-02-07 14:11:00,59.4,42.7,29.32,SSW,202,1.1,1.1,54,0.00,,---,0.00,VWS V14.01,2013-02-07 20:11:00,
2013-02-07 14:17:00,59.2,42.1,29.32,ENE,68,2.0,2.0,53,0.00,,---,0.00,VWS V14.01,2013-02-07 20:17:00,
2013-02-07 14:22:00,59.4,42.7,29.32,ENE,68,2.2,2.7,54,0.00,,---,0.00,VWS V14.01,2013-02-07 20:22:00,
2013-02-07 14:27:00,59.4,42.2,29.32,ESE,112,3.6,3.6,53,0.00,,---,0.00,VWS V14.01,2013-02-07 20:27:00,
2013-02-07 14:32:00,59.2,42.1,29.29,East,90,2.7,4.7,53,0.00,,---,0.00,VWS V14.01,2013-02-07 20:32:00,
2013-02-07 14:37:00,59.2,43.5,29.29,ENE,68,2.0,3.6,56,0.00,,---,0.00,VWS V14.01,2013-02-07 20:37:00,
2013-02-07 14:42:00,59.2,43.0,29.29,ENE,68,0.0,1.3,55,0.00,,---,0.00,VWS V14.01,2013-02-07 20:42:00,
2013-02-07 14:47:00,59.4,44.1,29.29,SSE,158,2.2,2.2,57,0.00,,---,0.00,VWS V14.01,2013-02-07 20:47:00,
2013-02-07 14:52:00,59.2,43.0,29.26,ESE,112,1.6,2.7,55,0.00,,---,0.00,VWS V14.01,2013-02-07 20:52:00,
2013-02-07 14:57:00,59.2,43.0,29.26,ESE,112,1.6,1.6,55,0.00,,---,0.00,VWS V14.01,2013-02-07 20:57:00,
2013-02-07 15:02:00,59.2,43.5,29.29,SSW,202,2.0,2.7,56,0.00,,---,0.00,VWS V14.01,2013-02-07 21:02:00,
2013-02-07 15:07:00,59.2,43.5,29.29,SSW,202,0.0,0.0,56,0.00,,---,0.00,VWS V14.01,2013-02-07 21:07:00,
2013-02-07 15:12:00,59.2,43.0,29.29,ESE,112,1.3,1.3,55,0.00,,---,0.00,VWS V14.01,2013-02-07 21:12:00,
2013-02-07 15:17:00,59.0,42.9,29.29,ENE,68,1.3,2.2,55,0.00,,---,0.00,VWS V14.01,2013-02-07 21:17:00,
2013-02-07 15:22:00,59.0,42.9,29.29,ENE,68,0.0,1.1,55,0.00,,---,0.00,VWS V14.01,2013-02-07 21:22:00,
2013-02-07 15:27:00,58.8,43.6,29.29,ENE,68,0.9,0.9,57,0.00,,---,0.00,VWS V14.01,2013-02-07 21:27:00,
2013-02-07 15:32:00,58.5,44.6,29.29,ENE,68,0.0,0.0,60,0.00,,---,0.00,VWS V14.01,2013-02-07 21:32:00,
2013-02-07 15:37:00,58.3,45.3,29.29,ENE,68,1.1,1.3,62,0.00,,---,0.00,VWS V14.01,2013-02-07 21:37:00,
2013-02-07 15:42:00,58.1,47.2,29.29,NE,45,1.1,2.9,67,0.05,,---,0.05,VWS V14.01,2013-02-07 21:42:00,
2013-02-07 15:47:00,57.7,47.7,29.29,NE,45,2.0,2.2,69,0.05,,---,0.05,VWS V14.01,2013-02-07 21:47:00,
2013-02-07 15:52:00,57.4,46.9,29.29,ENE,68,0.0,2.7,68,0.05,,---,0.05,VWS V14.01,2013-02-07 21:52:00,
2013-02-07 15:57:00,57.2,47.9,29.29,ENE,68,2.0,2.2,71,0.05,,---,0.05,VWS V14.01,2013-02-07 21:57:00,
2013-02-07 16:02:00,57.2,47.5,29.29,ENE,68,2.0,2.2,70,0.09,,---,0.09,VWS V14.01,2013-02-07 22:02:00,
2013-02-07 16:07:00,57.2,48.6,29.29,ENE,68,0.0,1.6,73,0.09,,---,0.09,VWS V14.01,2013-02-07 22:07:00,
2013-02-07 16:13:00,57.0,49.5,29.29,ENE,68,2.2,2.2,76,0.09,,---,0.09,VWS V14.01,2013-02-07 22:13:00,
2013-02-07 16:18:00,57.0,48.8,29.29,ENE,68,1.3,2.2,74,0.09,,---,0.09,VWS V14.01,2013-02-07 22:18:00,
2013-02-07 16:23:00,57.0,49.2,29.29,ENE,68,1.6,2.5,75,0.09,,---,0.09,VWS V14.01,2013-02-07 22:23:00,
2013-02-07 16:28:00,56.8,49.0,29.29,ENE,68,1.3,2.5,75,0.09,,---,0.09,VWS V14.01,2013-02-07 22:28:00,
2013-02-07 16:33:00,56.8,49.0,29.29,ENE,68,1.3,2.2,75,0.09,,---,0.09,VWS V14.01,2013-02-07 22:33:00,
2013-02-07 16:38:00,56.8,49.4,29.29,ENE,68,1.6,2.0,76,0.04,,---,0.09,VWS V14.01,2013-02-07 22:38:00,
2013-02-07 16:43:00,56.8,49.7,29.29,ENE,68,1.3,2.7,77,0.04,,---,0.09,VWS V14.01,2013-02-07 22:43:00,
2013-02-07 16:48:00,56.8,49.7,29.29,ENE,68,1.3,2.0,77,0.04,,---,0.09,VWS V14.01,2013-02-07 22:48:00,
2013-02-07 16:53:00,56.7,49.9,29.29,ENE,68,1.3,1.3,78,0.04,,---,0.09,VWS V14.01,2013-02-07 22:53:00,
2013-02-07 16:58:00,56.7,49.9,29.29,ENE,68,0.0,2.0,78,0.04,,---,0.09,VWS V14.01,2013-02-07 22:58:00,
2013-02-07 17:03:00,57.0,51.6,29.29,ENE,68,0.0,1.1,82,0.04,,---,0.09,VWS V14.01,2013-02-07 23:03:00,
2013-02-07 17:08:00,56.8,52.1,29.29,ENE,68,0.0,0.0,84,0.00,,---,0.09,VWS V14.01,2013-02-07 23:08:00,
2013-02-07 17:13:00,56.8,52.1,29.29,East,90,0.0,1.6,84,0.00,,---,0.09,VWS V14.01,2013-02-07 23:13:00,
2013-02-07 17:18:00,56.7,51.9,29.29,East,90,0.0,0.0,84,0.00,,---,0.09,VWS V14.01,2013-02-07 23:18:00,
2013-02-07 17:23:00,56.7,51.9,29.29,East,90,0.0,2.0,84,0.00,,---,0.09,VWS V14.01,2013-02-07 23:23:00,
2013-02-07 17:28:00,56.7,51.9,29.29,East,90,0.0,0.0,84,0.00,,---,0.09,VWS V14.01,2013-02-07 23:28:00,
2013-02-07 17:33:00,56.7,51.9,29.32,East,90,0.0,0.0,84,0.00,,---,0.09,VWS V14.01,2013-02-07 23:33:00,
2013-02-07 17:38:00,56.7,51.9,29.32,East,90,0.0,0.0,84,0.00,,---,0.09,VWS V14.01,2013-02-07 23:38:00,
2013-02-07 17:43:00,56.7,51.9,29.32,East,90,0.0,0.0,84,0.00,,---,0.09,VWS V14.01,2013-02-07 23:43:00,
2013-02-07 17:48:00,56.7,51.9,29.32,East,90,0.0,0.0,84,0.00,,---,0.09,VWS V14.01,2013-02-07 23:48:00,
2013-02-07 17:53:00,56.7,51.9,29.32,NE,45,0.0,0.0,84,0.00,,---,0.09,VWS V14.01,2013-02-07 23:53:00,
2013-02-07 17:58:00,56.7,51.9,29.32,NE,45,0.0,0.0,84,0.00,,---,0.09,VWS V14.01,2013-02-07 23:58:00,
2013-02-07 18:03:00,56.7,52.2,29.32,NNE,22,2.0,2.0,85,0.00,,---,0.09,VWS V14.01,2013-02-08 00:03:00,
2013-02-07 18:08:00,56.7,52.2,29.32,NNE,22,1.1,2.2,85,0.00,,---,0.09,VWS V14.01,2013-02-08 00:08:00,
2013-02-07 18:13:00,56.7,52.5,29.32,NNE,22,1.1,2.2,86,0.04,,---,0.13,VWS V14.01,2013-02-08 00:13:00,
2013-02-07 18:18:00,56.7,52.5,29.32,NNE,22,2.0,2.0,86,0.04,,---,0.13,VWS V14.01,2013-02-08 00:18:00,
2013-02-07 18:24:00,56.5,52.3,29.32,NNE,22,0.0,2.0,86,0.04,,---,0.13,VWS V14.01,2013-02-08 00:24:00,
2013-02-07 18:29:00,56.5,52.3,29.32,NNE,22,1.3,1.6,86,0.04,,---,0.13,VWS V14.01,2013-02-08 00:29:00,
2013-02-07 18:34:00,56.5,52.3,29.32,NNE,22,0.0,1.3,86,0.04,,---,0.13,VWS V14.01,2013-02-08 00:34:00,
2013-02-07 18:39:00,56.5,52.7,29.32,NNE,22,0.0,0.0,87,0.04,,---,0.13,VWS V14.01,2013-02-08 00:39:00,
2013-02-07 18:44:00,56.5,52.7,29.32,NNE,22,0.0,0.0,87,0.04,,---,0.13,VWS V14.01,2013-02-08 00:44:00,
2013-02-07 18:49:00,56.5,52.7,29.32,NNE,22,0.0,0.0,87,0.04,,---,0.13,VWS V14.01,2013-02-08 00:49:00,
2013-02-07 18:54:00,56.3,52.5,29.32,NNE,22,0.0,0.0,87,0.04,,---,0.13,VWS V14.01,2013-02-08 00:54:00,
2013-02-07 18:59:00,56.3,52.8,29.32,NNE,22,0.0,1.1,88,0.04,,---,0.13,VWS V14.01,2013-02-08 00:59:00,
2013-02-07 19:04:00,56.3,52.8,29.32,NNE,22,0.0,0.0,88,0.04,,---,0.13,VWS V14.01,2013-02-08 01:04:00,
2013-02-07 19:09:00,56.3,52.8,29.32,NNE,22,0.0,0.0,88,0.04,,---,0.13,VWS V14.01,2013-02-08 01:09:00,
2013-02-07 19:14:00,56.3,52.8,29.32,NNE,22,0.0,0.0,88,0.00,,---,0.13,VWS V14.01,2013-02-08 01:14:00,
2013-02-07 19:19:00,56.3,52.8,29.32,NNE,22,0.0,0.0,88,0.00,,---,0.13,VWS V14.01,2013-02-08 01:19:00,
2013-02-07 19:24:00,56.5,53.0,29.32,NNE,22,0.0,0.0,88,0.00,,---,0.13,VWS V14.01,2013-02-08 01:24:00,
2013-02-07 19:29:00,56.3,53.1,29.32,NNW,338,0.0,0.0,89,0.00,,---,0.13,VWS V14.01,2013-02-08 01:29:00,
2013-02-07 19:34:00,56.5,53.6,29.32,NW,315,0.0,0.0,90,0.00,,---,0.13,VWS V14.01,2013-02-08 01:34:00,
2013-02-07 19:39:00,56.5,53.9,29.32,WNW,292,2.5,2.5,91,0.00,,---,0.13,VWS V14.01,2013-02-08 01:39:00,
2013-02-07 19:44:00,56.5,54.5,29.32,WNW,292,2.2,2.9,93,0.00,,---,0.13,VWS V14.01,2013-02-08 01:44:00,
2013-02-07 19:49:00,56.5,54.5,29.32,NNW,338,1.6,2.0,93,0.00,,---,0.13,VWS V14.01,2013-02-08 01:49:00,
2013-02-07 19:54:00,56.3,54.3,29.32,NNW,338,0.0,0.0,93,0.00,,---,0.13,VWS V14.01,2013-02-08 01:54:00,
2013-02-07 19:59:00,56.3,54.3,29.32,NNW,338,0.0,0.0,93,0.00,,---,0.13,VWS V14.01,2013-02-08 01:59:00,
2013-02-07 20:04:00,56.3,54.3,29.32,NNW,338,0.0,0.0,93,0.00,,---,0.13,VWS V14.01,2013-02-08 02:04:00,
2013-02-07 20:10:00,56.3,54.3,29.32,NNW,338,0.0,0.0,93,0.00,,---,0.13,VWS V14.01,2013-02-08 02:10:00,
2013-02-07 20:15:00,56.3,54.0,29.32,NNW,338,0.0,0.0,92,0.00,,---,0.13,VWS V14.01,2013-02-08 02:15:00,
2013-02-07 20:20:00,56.3,54.3,29.32,NNW,338,2.0,2.2,93,0.00,,---,0.13,VWS V14.01,2013-02-08 02:20:00,
2013-02-07 20:25:00,56.3,54.3,29.32,NW,315,1.3,1.6,93,0.04,,---,0.17,VWS V14.01,2013-02-08 02:25:00,
2013-02-07 20:30:00,56.5,54.8,29.32,WSW,248,2.5,2.9,94,0.04,,---,0.17,VWS V14.01,2013-02-08 02:30:00,
2013-02-07 20:35:00,56.3,54.9,29.32,WSW,248,2.7,2.7,95,0.04,,---,0.17,VWS V14.01,2013-02-08 02:35:00,
2013-02-07 20:40:00,56.3,54.9,29.32,NW,315,2.2,2.2,95,0.04,,---,0.17,VWS V14.01,2013-02-08 02:40:00,
2013-02-07 20:45:00,56.3,54.9,29.32,NNW,338,0.0,1.3,95,0.04,,---,0.17,VWS V14.01,2013-02-08 02:45:00,
2013-02-07 20:50:00,56.3,54.9,29.35,NNW,338,0.0,0.0,95,0.04,,---,0.17,VWS V14.01,2013-02-08 02:50:00,
2013-02-07 20:55:00,56.3,54.9,29.35,NNW,338,1.3,2.0,95,0.04,,---,0.17,VWS V14.01,2013-02-08 02:55:00,
2013-02-07 21:00:00,56.3,54.9,29.35,NNW,338,1.3,2.0,95,0.04,,---,0.17,VWS V14.01,2013-02-08 03:00:00,
2013-02-07 21:05:00,56.3,54.9,29.35,NNE,22,4.7,4.7,95,0.04,,---,0.17,VWS V14.01,2013-02-08 03:05:00,
2013-02-07 21:10:00,56.1,54.7,29.35,North,0,2.7,3.6,95,0.04,,---,0.17,VWS V14.01,2013-02-08 03:10:00,
2013-02-07 21:15:00,56.1,54.7,29.35,WNW,292,3.8,3.8,95,0.04,,---,0.17,VWS V14.01,2013-02-08 03:15:00,
2013-02-07 21:20:00,55.9,54.5,29.35,West,270,4.0,5.6,95,0.04,,---,0.17,VWS V14.01,2013-02-08 03:20:00,
2013-02-07 21:25:00,56.1,54.4,29.35,West,270,6.3,7.4,94,0.04,,---,0.17,VWS V14.01,2013-02-08 03:25:00,
2013-02-07 21:30:00,56.3,54.9,29.35,NNW,338,2.5,4.9,95,0.04,,---,0.21,VWS V14.01,2013-02-08 03:30:00,
2013-02-07 21:35:00,56.1,54.7,29.38,NNW,338,3.8,6.0,95,0.04,,---,0.21,VWS V14.01,2013-02-08 03:35:00,
2013-02-07 21:40:00,55.9,54.5,29.38,North,0,1.3,4.9,95,0.08,,---,0.25,VWS V14.01,2013-02-08 03:40:00,
2013-02-07 21:45:00,55.8,54.1,29.38,North,0,4.3,12.5,94,0.08,,---,0.25,VWS V14.01,2013-02-08 03:45:00,
2013-02-07 21:50:00,55.4,53.4,29.35,NW,315,1.3,3.1,93,0.08,,---,0.25,VWS V14.01,2013-02-08 03:50:00,
2013-02-07 21:56:00,55.2,53.2,29.35,East,90,3.8,4.0,93,0.12,,---,0.29,VWS V14.01,2013-02-08 03:56:00,
2013-02-07 22:01:00,55.2,53.2,29.35,NW,315,3.1,3.1,93,0.12,,---,0.29,VWS V14.01,2013-02-08 04:01:00,
2013-02-07 22:06:00,55.0,52.8,29.38,WNW,292,3.6,3.6,92,0.16,,---,0.33,VWS V14.01,2013-02-08 04:06:00,
2013-02-07 22:11:00,54.9,52.6,29.38,West,270,2.5,4.0,92,0.16,,---,0.33,VWS V14.01,2013-02-08 04:11:00,
2013-02-07 22:16:00,54.7,52.4,29.38,West,270,1.1,4.0,92,0.21,,---,0.38,VWS V14.01,2013-02-08 04:16:00,
2013-02-07 22:21:00,54.5,51.9,29.38,North,0,2.0,3.1,91,0.21,,---,0.38,VWS V14.01,2013-02-08 04:21:00,
2013-02-07 22:26:00,54.5,51.9,29.38,West,270,2.0,2.0,91,0.21,,---,0.38,VWS V14.01,2013-02-08 04:26:00,
2013-02-07 22:31:00,54.3,51.8,29.38,WSW,248,1.6,3.6,91,0.17,,---,0.38,VWS V14.01,2013-02-08 04:31:00,
2013-02-07 22:36:00,54.3,52.0,29.38,NW,315,1.6,3.6,92,0.21,,---,0.42,VWS V14.01,2013-02-08 04:36:00,
2013-02-07 22:41:00,54.3,52.0,29.38,NW,315,2.5,2.9,92,0.17,,---,0.42,VWS V14.01,2013-02-08 04:41:00,
2013-02-07 22:46:00,54.1,51.9,29.38,NNW,338,2.5,3.1,92,0.17,,---,0.42,VWS V14.01,2013-02-08 04:46:00,
2013-02-07 22:51:00,54.0,51.7,29.38,NNW,338,2.5,3.1,92,0.21,,---,0.46,VWS V14.01,2013-02-08 04:51:00,
2013-02-07 22:56:00,54.0,51.7,29.38,NNW,338,0.9,2.5,92,0.17,,---,0.46,VWS V14.01,2013-02-08 04:56:00,
2013-02-07 23:00:00,53.8,51.5,29.38,North,0,1.3,1.3,92,0.17,,---,0.46,VWS V14.01,2013-02-08 05:00:00,
2013-02-07 23:02:00,53.8,51.5,29.38,NNW,338,1.6,2.0,92,0.17,,---,0.46,VWS V14.01,2013-02-08 05:02:00,
2013-02-07 23:03:00,53.8,51.5,29.38,NNW,338,1.1,2.0,92,0.17,,---,0.46,VWS V14.01,2013-02-08 05:03:00,
2013-02-07 23:07:00,53.6,51.0,29.38,NNW,338,0.0,0.0,91,0.17,,---,0.46,VWS V14.01,2013-02-08 05:07:00,
2013-02-07 23:12:00,53.6,51.0,29.38,North,0,0.0,0.0,91,0.13,,---,0.46,VWS V14.01,2013-02-08 05:12:00,
2013-02-07 23:17:00,53.4,51.2,29.38,NNW,338,0.0,0.0,92,0.08,,---,0.46,VWS V14.01,2013-02-08 05:17:00,
2013-02-07 23:22:00,53.4,51.2,29.38,NNW,338,0.0,0.0,92,0.08,,---,0.46,VWS V14.01,2013-02-08 05:22:00,
2013-02-07 23:27:00,53.2,51.3,29.38,NNW,338,0.0,0.0,93,0.08,,---,0.46,VWS V14.01,2013-02-08 05:27:00,
2013-02-07 23:32:00,53.2,51.3,29.41,NNW,338,2.9,3.8,93,0.08,,---,0.46,VWS V14.01,2013-02-08 05:32:00,
2013-02-07 23:37:00,53.1,51.1,29.41,West,270,2.7,3.6,93,0.04,,---,0.46,VWS V14.01,2013-02-08 05:37:00,
2013-02-07 23:42:00,52.9,50.9,29.41,NNW,338,2.5,3.1,93,0.04,,---,0.46,VWS V14.01,2013-02-08 05:42:00,
2013-02-07 23:47:00,52.7,50.5,29.41,West,270,3.8,3.8,92,0.04,,---,0.46,VWS V14.01,2013-02-08 05:47:00,
2013-02-07 23:52:00,52.7,50.5,29.41,WSW,248,0.0,2.9,92,0.00,,---,0.46,VWS V14.01,2013-02-08 05:52:00,
2013-02-07 23:57:00,52.5,50.3,29.41,NE,45,2.9,2.9,92,0.00,,---,0.46,VWS V14.01,2013-02-08 05:57:00,